CheckWX is a tool to help pilots better visualize weather data.  It is not intended as a substitute for an official pre-flight weather briefing.

00:02:33 UTC

KHHR METAR
Jack Northrop Field / Hawthorne Municipal Airport
Hawthorne, California, USA
Current

10 mins ago

KHHR 162353Z 29006KT 10SM CLR 21/14 A2993 RMK AO2 SLP134 T02110144 10233 20206 55000 $
Observed
Nov-16 @ 23:53 UTC
Wind
  • 290° at 6 KTS
Visibility
10 SM
Flight Rules
VFR
Cloud Levels
  • Clear skies
Temperature
21°C / 70°F
Dewpoint
14°C / 57°F
Humidity
64%
Altimeter
29.93" Hg
Pressure
1013.52 hPa
Previous

1 hour ago

KHHR 162253Z 27008KT 10SM CLR 22/12 A2992 RMK AO2 SLP132 T02220122 $
Observed
Nov-16 @ 22:53 UTC
Wind
  • 270° at 8 KTS
Visibility
10 SM
Flight Rules
VFR
Cloud Levels
  • Clear skies
Temperature
22°C / 72°F
Dewpoint
12°C / 54°F
Humidity
53%
Altimeter
29.92" Hg
Pressure
1013.22 hPa
Previous

2 hours ago

KHHR 162153Z 28006KT 10SM CLR 22/14 A2992 RMK AO2 SLP130 T02220144 $
Observed
Nov-16 @ 21:53 UTC
Wind
  • 280° at 6 KTS
Visibility
10 SM
Flight Rules
VFR
Cloud Levels
  • Clear skies
Temperature
22°C / 72°F
Dewpoint
14°C / 57°F
Humidity
61%
Altimeter
29.92" Hg
Pressure
1013.22 hPa